sensor_id;sensor_type;location;lat;lon;timestamp;pressure;altitude;pressure_sealevel;temperature
67353;BMP180;54238;52.278;21.056;2023-02-28T00:00:12;101868.80;;;-2.10
67353;BMP180;54238;52.278;21.056;2023-02-28T00:03:03;101862.00;;;-2.20
67353;BMP180;54238;52.278;21.056;2023-02-28T00:05:33;101869.40;;;-2.20
67353;BMP180;54238;52.278;21.056;2023-02-28T00:08:03;101866.80;;;-2.20
67353;BMP180;54238;52.278;21.056;2023-02-28T00:10:36;101864.40;;;-2.30
67353;BMP180;54238;52.278;21.056;2023-02-28T00:13:06;101866.00;;;-2.30
67353;BMP180;54238;52.278;21.056;2023-02-28T00:15:36;101874.40;;;-2.30
67353;BMP180;54238;52.278;21.056;2023-02-28T00:18:03;101873.40;;;-2.30
67353;BMP180;54238;52.278;21.056;2023-02-28T00:20:33;101875.40;;;-2.36
67353;BMP180;54238;52.278;21.056;2023-02-28T00:23:02;101870.80;;;-2.40
67353;BMP180;54238;52.278;21.056;2023-02-28T00:25:31;101871.40;;;-2.40
67353;BMP180;54238;52.278;21.056;2023-02-28T00:28:08;101876.80;;;-2.40
67353;BMP180;54238;52.278;21.056;2023-02-28T00:30:36;101875.60;;;-2.40
67353;BMP180;54238;52.278;21.056;2023-02-28T00:33:03;101884.40;;;-2.50
67353;BMP180;54238;52.278;21.056;2023-02-28T00:35:35;101883.60;;;-2.50
67353;BMP180;54238;52.278;21.056;2023-02-28T00:38:07;101884.80;;;-2.50
67353;BMP180;54238;52.278;21.056;2023-02-28T00:40:34;101881.80;;;-2.50
67353;BMP180;54238;52.278;21.056;2023-02-28T00:43:02;101877.20;;;-2.50
67353;BMP180;54238;52.278;21.056;2023-02-28T00:45:33;101875.80;;;-2.50
67353;BMP180;54238;52.278;21.056;2023-02-28T00:48:03;101879.40;;;-2.50
67353;BMP180;54238;52.278;21.056;2023-02-28T00:50:35;101876.60;;;-2.50
67353;BMP180;54238;52.278;21.056;2023-02-28T00:53:10;101876.20;;;-2.52
67353;BMP180;54238;52.278;21.056;2023-02-28T00:55:41;101873.00;;;-2.50
67353;BMP180;54238;52.278;21.056;2023-02-28T00:58:08;101875.80;;;-2.50
67353;BMP180;54238;52.278;21.056;2023-02-28T01:00:35;101871.40;;;-2.60
67353;BMP180;54238;52.278;21.056;2023-02-28T01:03:05;101871.00;;;-2.60
67353;BMP180;54238;52.278;21.056;2023-02-28T01:05:37;101875.20;;;-2.62
67353;BMP180;54238;52.278;21.056;2023-02-28T01:08:06;101874.20;;;-2.68
67353;BMP180;54238;52.278;21.056;2023-02-28T01:10:36;101876.60;;;-2.70
67353;BMP180;54238;52.278;21.056;2023-02-28T01:13:06;101874.40;;;-2.70
67353;BMP180;54238;52.278;21.056;2023-02-28T01:15:34;101870.80;;;-2.70
67353;BMP180;54238;52.278;21.056;2023-02-28T01:18:06;101872.00;;;-2.70
67353;BMP180;54238;52.278;21.056;2023-02-28T01:20:41;101874.00;;;-2.70
67353;BMP180;54238;52.278;21.056;2023-02-28T01:23:09;101869.60;;;-2.70
67353;BMP180;54238;52.278;21.056;2023-02-28T01:25:41;101872.00;;;-2.70
67353;BMP180;54238;52.278;21.056;2023-02-28T01:28:13;101871.20;;;-2.70
67353;BMP180;54238;52.278;21.056;2023-02-28T01:30:42;101875.40;;;-2.76
67353;BMP180;54238;52.278;21.056;2023-02-28T01:33:11;101877.80;;;-2.80
67353;BMP180;54238;52.278;21.056;2023-02-28T01:35:41;101886.00;;;-2.80
67353;BMP180;54238;52.278;21.056;2023-02-28T01:38:13;101879.00;;;-2.80
67353;BMP180;54238;52.278;21.056;2023-02-28T01:40:43;101881.40;;;-2.80
67353;BMP180;54238;52.278;21.056;2023-02-28T01:43:30;101883.00;;;-2.80
67353;BMP180;54238;52.278;21.056;2023-02-28T01:46:03;101883.00;;;-2.90
67353;BMP180;54238;52.278;21.056;2023-02-28T01:48:38;101879.20;;;-2.90
67353;BMP180;54238;52.278;21.056;2023-02-28T01:51:18;101878.60;;;-2.92
67353;BMP180;54238;52.278;21.056;2023-02-28T01:53:54;101879.20;;;-3.00
67353;BMP180;54238;52.278;21.056;2023-02-28T01:56:30;101877.00;;;-3.00
67353;BMP180;54238;52.278;21.056;2023-02-28T01:58:58;101882.40;;;-3.10
67353;BMP180;54238;52.278;21.056;2023-02-28T02:01:32;101883.20;;;-3.10
67353;BMP180;54238;52.278;21.056;2023-02-28T02:04:02;101877.40;;;-3.20
67353;BMP180;54238;52.278;21.056;2023-02-28T02:06:38;101876.00;;;-3.20
67353;BMP180;54238;52.278;21.056;2023-02-28T02:09:09;101878.00;;;-3.20
67353;BMP180;54238;52.278;21.056;2023-02-28T02:11:42;101879.00;;;-3.20
67353;BMP180;54238;52.278;21.056;2023-02-28T02:25:59;101880.80;;;-3.30
67353;BMP180;54238;52.278;21.056;2023-02-28T02:28:57;101880.00;;;-3.36
67353;BMP180;54238;52.278;21.056;2023-02-28T02:31:58;101880.00;;;-3.40
67353;BMP180;54238;52.278;21.056;2023-02-28T02:34:56;101879.20;;;-3.38
67353;BMP180;54238;52.278;21.056;2023-02-28T02:37:38;101873.60;;;-3.40
67353;BMP180;54238;52.278;21.056;2023-02-28T02:40:14;101882.00;;;-3.40
67353;BMP180;54238;52.278;21.056;2023-02-28T02:42:56;101882.00;;;-3.40
67353;BMP180;54238;52.278;21.056;2023-02-28T02:48:25;101883.20;;;-3.40
67353;BMP180;54238;52.278;21.056;2023-02-28T02:51:10;101881.40;;;-3.40
67353;BMP180;54238;52.278;21.056;2023-02-28T02:53:50;101883.80;;;-3.40
67353;BMP180;54238;52.278;21.056;2023-02-28T02:56:32;101884.60;;;-3.40
67353;BMP180;54238;52.278;21.056;2023-02-28T02:59:09;101886.00;;;-3.42
67353;BMP180;54238;52.278;21.056;2023-02-28T03:01:43;101888.00;;;-3.48
67353;BMP180;54238;52.278;21.056;2023-02-28T03:04:22;101892.80;;;-3.46
67353;BMP180;54238;52.278;21.056;2023-02-28T03:06:51;101892.20;;;-3.50
67353;BMP180;54238;52.278;21.056;2023-02-28T03:09:25;101893.20;;;-3.50
67353;BMP180;54238;52.278;21.056;2023-02-28T03:11:57;101888.80;;;-3.50
67353;BMP180;54238;52.278;21.056;2023-02-28T03:28:28;101886.80;;;-3.60
67353;BMP180;54238;52.278;21.056;2023-02-28T03:33:51;101892.40;;;-3.70
67353;BMP180;54238;52.278;21.056;2023-02-28T03:36:30;101895.00;;;-3.70
67353;BMP180;54238;52.278;21.056;2023-02-28T03:39:17;101897.40;;;-3.70
67353;BMP180;54238;52.278;21.056;2023-02-28T03:41:58;101892.60;;;-3.70
67353;BMP180;54238;52.278;21.056;2023-02-28T03:45:02;101893.20;;;-3.70
67353;BMP180;54238;52.278;21.056;2023-02-28T03:47:41;101900.00;;;-3.70
67353;BMP180;54238;52.278;21.056;2023-02-28T03:50:20;101898.80;;;-3.70
67353;BMP180;54238;52.278;21.056;2023-02-28T03:53:04;101896.00;;;-3.80
67353;BMP180;54238;52.278;21.056;2023-02-28T03:55:43;101902.00;;;-3.80
67353;BMP180;54238;52.278;21.056;2023-02-28T04:03:53;101907.40;;;-3.90
67353;BMP180;54238;52.278;21.056;2023-02-28T04:06:24;101903.00;;;-3.90
67353;BMP180;54238;52.278;21.056;2023-02-28T04:08:54;101908.00;;;-3.90
67353;BMP180;54238;52.278;21.056;2023-02-28T04:11:39;101904.00;;;-3.90
67353;BMP180;54238;52.278;21.056;2023-02-28T04:14:15;101903.40;;;-3.90
67353;BMP180;54238;52.278;21.056;2023-02-28T04:16:47;101899.00;;;-3.90
67353;BMP180;54238;52.278;21.056;2023-02-28T04:19:17;101901.60;;;-3.88
67353;BMP180;54238;52.278;21.056;2023-02-28T04:21:52;101900.60;;;-3.82
67353;BMP180;54238;52.278;21.056;2023-02-28T04:24:27;101900.20;;;-3.88
67353;BMP180;54238;52.278;21.056;2023-02-28T04:26:57;101903.20;;;-3.80
67353;BMP180;54238;52.278;21.056;2023-02-28T04:29:34;101904.40;;;-3.80
67353;BMP180;54238;52.278;21.056;2023-02-28T04:32:05;101907.40;;;-3.84
67353;BMP180;54238;52.278;21.056;2023-02-28T04:34:39;101906.40;;;-3.86
67353;BMP180;54238;52.278;21.056;2023-02-28T04:37:11;101905.60;;;-3.82
67353;BMP180;54238;52.278;21.056;2023-02-28T04:39:42;101906.40;;;-3.80
67353;BMP180;54238;52.278;21.056;2023-02-28T04:42:17;101900.40;;;-3.80
67353;BMP180;54238;52.278;21.056;2023-02-28T04:44:49;101903.60;;;-3.80
67353;BMP180;54238;52.278;21.056;2023-02-28T04:47:17;101902.80;;;-3.80
67353;BMP180;54238;52.278;21.056;2023-02-28T04:49:49;101908.80;;;-3.80
67353;BMP180;54238;52.278;21.056;2023-02-28T04:52:17;101905.80;;;-3.80
67353;BMP180;54238;52.278;21.056;2023-02-28T04:54:49;101909.00;;;-3.88
67353;BMP180;54238;52.278;21.056;2023-02-28T04:57:17;101911.60;;;-3.86
67353;BMP180;54238;52.278;21.056;2023-02-28T04:59:46;101914.80;;;-3.90
67353;BMP180;54238;52.278;21.056;2023-02-28T05:02:17;101914.40;;;-3.90
67353;BMP180;54238;52.278;21.056;2023-02-28T05:04:47;101912.20;;;-3.90
67353;BMP180;54238;52.278;21.056;2023-02-28T05:07:16;101912.00;;;-3.90
67353;BMP180;54238;52.278;21.056;2023-02-28T05:09:46;101911.00;;;-4.00
67353;BMP180;54238;52.278;21.056;2023-02-28T05:12:16;101914.80;;;-4.08
67353;BMP180;54238;52.278;21.056;2023-02-28T05:14:49;101921.80;;;-4.00
67353;BMP180;54238;52.278;21.056;2023-02-28T05:17:17;101925.40;;;-4.00
67353;BMP180;54238;52.278;21.056;2023-02-28T05:19:47;101929.00;;;-4.00
67353;BMP180;54238;52.278;21.056;2023-02-28T05:22:16;101936.00;;;-4.00
67353;BMP180;54238;52.278;21.056;2023-02-28T05:24:46;101938.60;;;-4.00
67353;BMP180;54238;52.278;21.056;2023-02-28T05:27:14;101944.20;;;-4.00
67353;BMP180;54238;52.278;21.056;2023-02-28T05:29:43;101943.60;;;-4.00
67353;BMP180;54238;52.278;21.056;2023-02-28T05:32:12;101947.80;;;-4.00
67353;BMP180;54238;52.278;21.056;2023-02-28T05:34:41;101948.00;;;-4.00
67353;BMP180;54238;52.278;21.056;2023-02-28T05:37:13;101955.40;;;-4.00
67353;BMP180;54238;52.278;21.056;2023-02-28T05:39:46;101958.20;;;-4.00
67353;BMP180;54238;52.278;21.056;2023-02-28T05:42:13;101956.60;;;-4.00
67353;BMP180;54238;52.278;21.056;2023-02-28T05:44:43;101955.60;;;-4.00
67353;BMP180;54238;52.278;21.056;2023-02-28T05:47:13;101956.40;;;-3.98
67353;BMP180;54238;52.278;21.056;2023-02-28T05:49:46;101959.00;;;-3.96
67353;BMP180;54238;52.278;21.056;2023-02-28T05:52:14;101961.80;;;-3.90
67353;BMP180;54238;52.278;21.056;2023-02-28T05:54:46;101965.80;;;-3.90
67353;BMP180;54238;52.278;21.056;2023-02-28T05:57:16;101971.20;;;-3.90
67353;BMP180;54238;52.278;21.056;2023-02-28T05:59:48;101973.20;;;-3.80
67353;BMP180;54238;52.278;21.056;2023-02-28T06:02:21;101973.60;;;-3.80
67353;BMP180;54238;52.278;21.056;2023-02-28T06:04:48;101973.40;;;-3.80
67353;BMP180;54238;52.278;21.056;2023-02-28T06:07:16;101980.20;;;-3.70
67353;BMP180;54238;52.278;21.056;2023-02-28T06:09:48;101980.00;;;-3.70
67353;BMP180;54238;52.278;21.056;2023-02-28T06:12:18;101981.00;;;-3.66
67353;BMP180;54238;52.278;21.056;2023-02-28T06:14:50;101982.80;;;-3.60
67353;BMP180;54238;52.278;21.056;2023-02-28T06:17:17;101983.40;;;-3.60
67353;BMP180;54238;52.278;21.056;2023-02-28T06:19:45;101982.60;;;-3.50
67353;BMP180;54238;52.278;21.056;2023-02-28T06:22:14;101988.20;;;-3.50
67353;BMP180;54238;52.278;21.056;2023-02-28T06:24:45;101987.20;;;-3.40
67353;BMP180;54238;52.278;21.056;2023-02-28T06:27:17;101988.60;;;-3.40
67353;BMP180;54238;52.278;21.056;2023-02-28T06:29:53;101985.60;;;-3.30
67353;BMP180;54238;52.278;21.056;2023-02-28T06:32:26;101984.20;;;-3.30
67353;BMP180;54238;52.278;21.056;2023-02-28T06:34:54;101982.60;;;-3.20
67353;BMP180;54238;52.278;21.056;2023-02-28T06:37:31;101977.00;;;-3.20
67353;BMP180;54238;52.278;21.056;2023-02-28T06:40:01;101970.00;;;-3.12
67353;BMP180;54238;52.278;21.056;2023-02-28T06:42:36;101966.20;;;-3.10
67353;BMP180;54238;52.278;21.056;2023-02-28T06:45:07;101965.40;;;-3.00
67353;BMP180;54238;52.278;21.056;2023-02-28T06:47:41;101967.00;;;-3.00
67353;BMP180;54238;52.278;21.056;2023-02-28T06:50:13;101964.00;;;-2.90
67353;BMP180;54238;52.278;21.056;2023-02-28T06:52:46;101956.80;;;-2.90
67353;BMP180;54238;52.278;21.056;2023-02-28T06:55:23;101958.00;;;-2.80
67353;BMP180;54238;52.278;21.056;2023-02-28T06:57:51;101952.20;;;-2.70
67353;BMP180;54238;52.278;21.056;2023-02-28T07:00:18;101952.00;;;-2.64
67353;BMP180;54238;52.278;21.056;2023-02-28T07:02:49;101945.00;;;-2.60
67353;BMP180;54238;52.278;21.056;2023-02-28T07:05:17;101948.20;;;-2.44
67353;BMP180;54238;52.278;21.056;2023-02-28T07:07:44;101952.00;;;-2.40
67353;BMP180;54238;52.278;21.056;2023-02-28T07:10:14;101949.20;;;-2.30
67353;BMP180;54238;52.278;21.056;2023-02-28T07:12:52;101951.20;;;-2.20
67353;BMP180;54238;52.278;21.056;2023-02-28T07:15:20;101946.60;;;-2.10
67353;BMP180;54238;52.278;21.056;2023-02-28T07:17:48;101952.80;;;-2.00
67353;BMP180;54238;52.278;21.056;2023-02-28T07:20:21;101953.40;;;-1.90
67353;BMP180;54238;52.278;21.056;2023-02-28T07:22:51;101954.40;;;-1.80
67353;BMP180;54238;52.278;21.056;2023-02-28T07:25:30;101950.40;;;-1.70
67353;BMP180;54238;52.278;21.056;2023-02-28T07:28:01;101953.20;;;-1.60
67353;BMP180;54238;52.278;21.056;2023-02-28T07:30:43;101952.80;;;-1.44
67353;BMP180;54238;52.278;21.056;2023-02-28T07:33:13;101946.80;;;-1.32
67353;BMP180;54238;52.278;21.056;2023-02-28T07:35:42;101949.60;;;-1.26
67353;BMP180;54238;52.278;21.056;2023-02-28T07:38:12;101947.40;;;-1.10
67353;BMP180;54238;52.278;21.056;2023-02-28T07:40:42;101947.20;;;-1.00
67353;BMP180;54238;52.278;21.056;2023-02-28T07:43:14;101946.60;;;-0.90
67353;BMP180;54238;52.278;21.056;2023-02-28T07:45:42;101943.20;;;-0.74
67353;BMP180;54238;52.278;21.056;2023-02-28T07:48:10;101952.60;;;-0.60
67353;BMP180;54238;52.278;21.056;2023-02-28T07:50:38;101949.20;;;-0.50
67353;BMP180;54238;52.278;21.056;2023-02-28T07:53:07;101958.00;;;-0.30
67353;BMP180;54238;52.278;21.056;2023-02-28T07:55:35;101957.80;;;-0.14
67353;BMP180;54238;52.278;21.056;2023-02-28T07:58:02;101954.20;;;0.00
67353;BMP180;54238;52.278;21.056;2023-02-28T08:00:32;101954.60;;;0.10
67353;BMP180;54238;52.278;21.056;2023-02-28T08:03:05;101955.60;;;0.24
67353;BMP180;54238;52.278;21.056;2023-02-28T08:05:32;101964.20;;;0.40
67353;BMP180;54238;52.278;21.056;2023-02-28T08:08:05;101963.20;;;0.54
67353;BMP180;54238;52.278;21.056;2023-02-28T08:10:37;101965.00;;;0.78
67353;BMP180;54238;52.278;21.056;2023-02-28T08:13:05;101968.20;;;0.90
67353;BMP180;54238;52.278;21.056;2023-02-28T08:15:41;101964.80;;;1.10
67353;BMP180;54238;52.278;21.056;2023-02-28T08:18:15;101966.40;;;1.30
67353;BMP180;54238;52.278;21.056;2023-02-28T08:20:45;101963.40;;;1.50
67353;BMP180;54238;52.278;21.056;2023-02-28T08:23:13;101962.00;;;1.70
67353;BMP180;54238;52.278;21.056;2023-02-28T08:25:44;101960.00;;;2.00
67353;BMP180;54238;52.278;21.056;2023-02-28T08:28:12;101962.60;;;2.20
67353;BMP180;54238;52.278;21.056;2023-02-28T08:30:42;101961.40;;;2.30
67353;BMP180;54238;52.278;21.056;2023-02-28T08:33:12;101962.40;;;2.46
67353;BMP180;54238;52.278;21.056;2023-02-28T08:35:41;101970.20;;;2.70
67353;BMP180;54238;52.278;21.056;2023-02-28T08:38:11;101972.00;;;2.90
67353;BMP180;54238;52.278;21.056;2023-02-28T08:40:43;101971.80;;;3.00
67353;BMP180;54238;52.278;21.056;2023-02-28T08:43:15;101974.40;;;3.10
67353;BMP180;54238;52.278;21.056;2023-02-28T08:45:51;101974.80;;;3.28
67353;BMP180;54238;52.278;21.056;2023-02-28T08:48:21;101973.80;;;3.40
67353;BMP180;54238;52.278;21.056;2023-02-28T08:51:04;101975.60;;;3.60
67353;BMP180;54238;52.278;21.056;2023-02-28T08:53:42;101969.40;;;3.90
67353;BMP180;54238;52.278;21.056;2023-02-28T08:56:18;101978.40;;;4.10
67353;BMP180;54238;52.278;21.056;2023-02-28T08:58:50;101974.80;;;4.20
67353;BMP180;54238;52.278;21.056;2023-02-28T09:01:32;101981.40;;;4.30
67353;BMP180;54238;52.278;21.056;2023-02-28T09:04:01;101981.40;;;4.40
67353;BMP180;54238;52.278;21.056;2023-02-28T09:06:32;101980.00;;;4.50
67353;BMP180;54238;52.278;21.056;2023-02-28T09:09:05;101980.00;;;4.60
67353;BMP180;54238;52.278;21.056;2023-02-28T09:11:41;101984.20;;;4.80
67353;BMP180;54238;52.278;21.056;2023-02-28T09:14:10;101988.20;;;5.14
67353;BMP180;54238;52.278;21.056;2023-02-28T09:16:37;101990.60;;;5.46
67353;BMP180;54238;52.278;21.056;2023-02-28T09:19:13;101996.80;;;5.86
67353;BMP180;54238;52.278;21.056;2023-02-28T09:21:43;101997.20;;;6.20
67353;BMP180;54238;52.278;21.056;2023-02-28T09:24:13;101998.40;;;6.60
67353;BMP180;54238;52.278;21.056;2023-02-28T09:26:43;102003.40;;;7.14
67353;BMP180;54238;52.278;21.056;2023-02-28T09:29:15;102001.80;;;7.50
67353;BMP180;54238;52.278;21.056;2023-02-28T09:31:49;102003.20;;;7.86
67353;BMP180;54238;52.278;21.056;2023-02-28T09:34:19;102002.60;;;8.04
67353;BMP180;54238;52.278;21.056;2023-02-28T09:36:49;102003.20;;;8.30
67353;BMP180;54238;52.278;21.056;2023-02-28T09:39:22;102000.60;;;8.50
67353;BMP180;54238;52.278;21.056;2023-02-28T09:41:53;102001.80;;;8.90
67353;BMP180;54238;52.278;21.056;2023-02-28T09:44:44;102000.80;;;9.12
67353;BMP180;54238;52.278;21.056;2023-02-28T09:47:31;102003.80;;;9.40
67353;BMP180;54238;52.278;21.056;2023-02-28T09:52:58;102008.40;;;9.70
67353;BMP180;54238;52.278;21.056;2023-02-28T09:55:48;102009.80;;;10.00
67353;BMP180;54238;52.278;21.056;2023-02-28T09:58:31;102010.80;;;10.44
67353;BMP180;54238;52.278;21.056;2023-02-28T10:01:49;102015.00;;;10.80
67353;BMP180;54238;52.278;21.056;2023-02-28T10:04:44;102016.00;;;11.30
67353;BMP180;54238;52.278;21.056;2023-02-28T10:10:18;102018.40;;;11.54
67353;BMP180;54238;52.278;21.056;2023-02-28T10:12:56;102026.40;;;11.90
67353;BMP180;54238;52.278;21.056;2023-02-28T10:15:31;102031.20;;;12.20
67353;BMP180;54238;52.278;21.056;2023-02-28T10:18:20;102025.40;;;12.50
67353;BMP180;54238;52.278;21.056;2023-02-28T10:20:50;102025.80;;;12.64
67353;BMP180;54238;52.278;21.056;2023-02-28T10:23:35;102026.80;;;12.70
67353;BMP180;54238;52.278;21.056;2023-02-28T10:26:13;102023.00;;;12.96
67353;BMP180;54238;52.278;21.056;2023-02-28T10:28:49;102025.00;;;13.00
67353;BMP180;54238;52.278;21.056;2023-02-28T10:31:20;102022.00;;;13.10
67353;BMP180;54238;52.278;21.056;2023-02-28T10:33:52;102020.00;;;13.14
67353;BMP180;54238;52.278;21.056;2023-02-28T10:36:24;102018.20;;;13.30
67353;BMP180;54238;52.278;21.056;2023-02-28T10:38:56;102017.20;;;13.50
67353;BMP180;54238;52.278;21.056;2023-02-28T10:41:30;102018.60;;;13.60
67353;BMP180;54238;52.278;21.056;2023-02-28T10:44:23;102015.20;;;13.70
67353;BMP180;54238;52.278;21.056;2023-02-28T10:46:53;102018.40;;;13.90
67353;BMP180;54238;52.278;21.056;2023-02-28T10:49:28;102014.80;;;14.06
67353;BMP180;54238;52.278;21.056;2023-02-28T10:52:02;102013.20;;;14.46
67353;BMP180;54238;52.278;21.056;2023-02-28T10:54:37;102012.60;;;14.60
67353;BMP180;54238;52.278;21.056;2023-02-28T10:57:21;102012.40;;;14.90
67353;BMP180;54238;52.278;21.056;2023-02-28T11:00:13;102011.80;;;15.18
67353;BMP180;54238;52.278;21.056;2023-02-28T11:02:52;102010.60;;;15.40
67353;BMP180;54238;52.278;21.056;2023-02-28T11:05:31;102007.20;;;15.80
67353;BMP180;54238;52.278;21.056;2023-02-28T11:10:48;102004.20;;;16.00
67353;BMP180;54238;52.278;21.056;2023-02-28T11:13:35;102002.40;;;16.12
67353;BMP180;54238;52.278;21.056;2023-02-28T11:16:10;101993.20;;;16.20
67353;BMP180;54238;52.278;21.056;2023-02-28T11:18:54;101986.80;;;15.70
67353;BMP180;54238;52.278;21.056;2023-02-28T11:24:12;101979.80;;;15.56
67353;BMP180;54238;52.278;21.056;2023-02-28T11:26:48;101978.40;;;15.80
67353;BMP180;54238;52.278;21.056;2023-02-28T11:29:31;101975.40;;;16.28
67353;BMP180;54238;52.278;21.056;2023-02-28T11:32:12;101977.80;;;16.50
67353;BMP180;54238;52.278;21.056;2023-02-28T11:34:43;101972.40;;;16.96
67353;BMP180;54238;52.278;21.056;2023-02-28T11:37:19;101967.80;;;17.34
67353;BMP180;54238;52.278;21.056;2023-02-28T11:39:57;101969.60;;;17.72
67353;BMP180;54238;52.278;21.056;2023-02-28T11:48:23;101967.00;;;18.10
67353;BMP180;54238;52.278;21.056;2023-02-28T11:51:20;101967.00;;;18.30
67353;BMP180;54238;52.278;21.056;2023-02-28T11:57:00;101954.60;;;18.10
67353;BMP180;54238;52.278;21.056;2023-02-28T12:11:31;101942.60;;;17.70
67353;BMP180;54238;52.278;21.056;2023-02-28T12:28:38;101930.20;;;18.24
67353;BMP180;54238;52.278;21.056;2023-02-28T12:31:23;101928.60;;;18.18
67353;BMP180;54238;52.278;21.056;2023-02-28T12:34:04;101924.40;;;18.30
67353;BMP180;54238;52.278;21.056;2023-02-28T12:36:35;101927.80;;;18.52
67353;BMP180;54238;52.278;21.056;2023-02-28T12:39:17;101926.20;;;18.78
67353;BMP180;54238;52.278;21.056;2023-02-28T12:42:05;101924.40;;;18.84
67353;BMP180;54238;52.278;21.056;2023-02-28T12:44:46;101922.80;;;18.90
67353;BMP180;54238;52.278;21.056;2023-02-28T12:47:18;101921.00;;;19.10
67353;BMP180;54238;52.278;21.056;2023-02-28T12:50:09;101913.60;;;19.18
67353;BMP180;54238;52.278;21.056;2023-02-28T12:59:48;101909.60;;;18.90
67353;BMP180;54238;52.278;21.056;2023-02-28T13:11:50;101912.40;;;19.50
67353;BMP180;54238;52.278;21.056;2023-02-28T13:17:35;101900.00;;;19.94
67353;BMP180;54238;52.278;21.056;2023-02-28T13:20:02;101893.60;;;20.00
67353;BMP180;54238;52.278;21.056;2023-02-28T13:25:02;101889.00;;;20.40
67353;BMP180;54238;52.278;21.056;2023-02-28T13:27:40;101895.20;;;20.70
67353;BMP180;54238;52.278;21.056;2023-02-28T13:33:38;101890.00;;;21.16
67353;BMP180;54238;52.278;21.056;2023-02-28T13:47:43;101874.20;;;23.10
67353;BMP180;54238;52.278;21.056;2023-02-28T13:50:28;101873.00;;;23.10
67353;BMP180;54238;52.278;21.056;2023-02-28T13:56:30;101869.60;;;23.60
67353;BMP180;54238;52.278;21.056;2023-02-28T13:59:19;101866.00;;;23.50
67353;BMP180;54238;52.278;21.056;2023-02-28T14:05:17;101859.20;;;23.50
67353;BMP180;54238;52.278;21.056;2023-02-28T14:07:54;101858.00;;;23.30
67353;BMP180;54238;52.278;21.056;2023-02-28T14:10:31;101859.00;;;23.52
67353;BMP180;54238;52.278;21.056;2023-02-28T14:15:59;101852.60;;;23.10
67353;BMP180;54238;52.278;21.056;2023-02-28T14:18:42;101845.00;;;22.70
67353;BMP180;54238;52.278;21.056;2023-02-28T14:41:38;101826.20;;;21.10
67353;BMP180;54238;52.278;21.056;2023-02-28T14:44:18;101833.20;;;20.48
67353;BMP180;54238;52.278;21.056;2023-02-28T14:47:14;101824.60;;;19.90
67353;BMP180;54238;52.278;21.056;2023-02-28T14:49:49;101821.00;;;19.50
67353;BMP180;54238;52.278;21.056;2023-02-28T14:52:32;101819.20;;;19.20
67353;BMP180;54238;52.278;21.056;2023-02-28T14:55:13;101814.80;;;18.90
67353;BMP180;54238;52.278;21.056;2023-02-28T14:57:54;101814.00;;;18.70
67353;BMP180;54238;52.278;21.056;2023-02-28T15:00:47;101815.80;;;18.50
67353;BMP180;54238;52.278;21.056;2023-02-28T15:03:29;101814.40;;;18.00
67353;BMP180;54238;52.278;21.056;2023-02-28T15:06:14;101816.20;;;17.70
67353;BMP180;54238;52.278;21.056;2023-02-28T15:09:13;101810.20;;;17.30
67353;BMP180;54238;52.278;21.056;2023-02-28T15:11:48;101813.00;;;17.00
67353;BMP180;54238;52.278;21.056;2023-02-28T15:14:20;101812.80;;;16.80
67353;BMP180;54238;52.278;21.056;2023-02-28T15:16:57;101814.20;;;16.42
67353;BMP180;54238;52.278;21.056;2023-02-28T15:19:41;101815.00;;;16.00
67353;BMP180;54238;52.278;21.056;2023-02-28T15:22:24;101812.40;;;15.84
67353;BMP180;54238;52.278;21.056;2023-02-28T15:24:57;101819.20;;;15.60
67353;BMP180;54238;52.278;21.056;2023-02-28T15:27:30;101817.80;;;15.30
67353;BMP180;54238;52.278;21.056;2023-02-28T15:30:11;101809.40;;;14.90
67353;BMP180;54238;52.278;21.056;2023-02-28T15:33:18;101802.40;;;14.26
67353;BMP180;54238;52.278;21.056;2023-02-28T15:35:50;101803.40;;;13.70
67353;BMP180;54238;52.278;21.056;2023-02-28T15:38:28;101801.60;;;13.48
67353;BMP180;54238;52.278;21.056;2023-02-28T15:41:03;101798.80;;;13.20
67353;BMP180;54238;52.278;21.056;2023-02-28T15:43:40;101798.60;;;12.90
67353;BMP180;54238;52.278;21.056;2023-02-28T15:46:17;101798.80;;;12.48
67353;BMP180;54238;52.278;21.056;2023-02-28T15:48:56;101798.80;;;11.96
67353;BMP180;54238;52.278;21.056;2023-02-28T15:51:33;101797.40;;;11.52
67353;BMP180;54238;52.278;21.056;2023-02-28T15:54:08;101798.40;;;10.94
67353;BMP180;54238;52.278;21.056;2023-02-28T15:56:44;101799.60;;;10.38
67353;BMP180;54238;52.278;21.056;2023-02-28T15:59:23;101801.60;;;9.86
67353;BMP180;54238;52.278;21.056;2023-02-28T16:02:35;101798.40;;;9.28
67353;BMP180;54238;52.278;21.056;2023-02-28T16:07:43;101803.20;;;7.88
67353;BMP180;54238;52.278;21.056;2023-02-28T16:10:27;101799.80;;;7.22
67353;BMP180;54238;52.278;21.056;2023-02-28T16:12:57;101800.20;;;6.70
67353;BMP180;54238;52.278;21.056;2023-02-28T16:15:29;101796.00;;;6.30
67353;BMP180;54238;52.278;21.056;2023-02-28T16:17:58;101804.00;;;5.90
67353;BMP180;54238;52.278;21.056;2023-02-28T16:20:32;101800.80;;;5.60
67353;BMP180;54238;52.278;21.056;2023-02-28T16:23:05;101791.60;;;5.30
67353;BMP180;54238;52.278;21.056;2023-02-28T16:25:42;101792.40;;;5.02
67353;BMP180;54238;52.278;21.056;2023-02-28T16:28:28;101790.00;;;4.80
67353;BMP180;54238;52.278;21.056;2023-02-28T16:31:05;101789.00;;;4.50
67353;BMP180;54238;52.278;21.056;2023-02-28T16:33:39;101786.60;;;4.30
67353;BMP180;54238;52.278;21.056;2023-02-28T16:36:24;101787.00;;;4.10
67353;BMP180;54238;52.278;21.056;2023-02-28T16:38:59;101786.20;;;3.92
67353;BMP180;54238;52.278;21.056;2023-02-28T16:41:30;101788.20;;;3.80
67353;BMP180;54238;52.278;21.056;2023-02-28T16:44:12;101786.40;;;3.66
67353;BMP180;54238;52.278;21.056;2023-02-28T16:46:43;101794.60;;;3.50
67353;BMP180;54238;52.278;21.056;2023-02-28T16:49:13;101795.80;;;3.40
67353;BMP180;54238;52.278;21.056;2023-02-28T16:51:43;101797.00;;;3.30
67353;BMP180;54238;52.278;21.056;2023-02-28T16:54:11;101803.40;;;3.18
67353;BMP180;54238;52.278;21.056;2023-02-28T16:56:46;101806.60;;;3.10
67353;BMP180;54238;52.278;21.056;2023-02-28T16:59:24;101799.20;;;3.00
67353;BMP180;54238;52.278;21.056;2023-02-28T17:01:56;101800.80;;;2.88